sensor_id;sensor_type;location;lat;lon;timestamp;P1;durP1;ratioP1;P2;durP2;ratioP2
1977;SDS011;989;53.016;8.346;2022-12-31T00:01:38;10.80;;;5.50;;
1977;SDS011;989;53.016;8.346;2022-12-31T00:04:04;7.00;;;5.50;;
1977;SDS011;989;53.016;8.346;2022-12-31T00:06:31;7.43;;;4.97;;
1977;SDS011;989;53.016;8.346;2022-12-31T00:08:59;7.60;;;5.20;;
1977;SDS011;989;53.016;8.346;2022-12-31T00:11:29;5.60;;;3.53;;
1977;SDS011;989;53.016;8.346;2022-12-31T00:13:56;9.47;;;5.50;;
1977;SDS011;989;53.016;8.346;2022-12-31T00:16:29;8.00;;;5.77;;
1977;SDS011;989;53.016;8.346;2022-12-31T00:19:04;7.83;;;5.17;;
1977;SDS011;989;53.016;8.346;2022-12-31T00:21:32;10.73;;;5.30;;
1977;SDS011;989;53.016;8.346;2022-12-31T00:23:59;10.60;;;6.20;;
1977;SDS011;989;53.016;8.346;2022-12-31T00:26:27;7.07;;;4.87;;
1977;SDS011;989;53.016;8.346;2022-12-31T00:28:55;10.33;;;5.37;;
1977;SDS011;989;53.016;8.346;2022-12-31T00:31:24;8.30;;;5.70;;
1977;SDS011;989;53.016;8.346;2022-12-31T00:33:53;6.73;;;4.77;;
1977;SDS011;989;53.016;8.346;2022-12-31T00:36:21;8.20;;;5.37;;
1977;SDS011;989;53.016;8.346;2022-12-31T00:38:49;7.77;;;5.87;;
1977;SDS011;989;53.016;8.346;2022-12-31T00:41:17;6.80;;;4.93;;
1977;SDS011;989;53.016;8.346;2022-12-31T00:43:44;10.93;;;5.27;;
1977;SDS011;989;53.016;8.346;2022-12-31T00:46:11;6.80;;;5.57;;
1977;SDS011;989;53.016;8.346;2022-12-31T00:48:37;9.63;;;4.97;;
1977;SDS011;989;53.016;8.346;2022-12-31T00:51:04;7.90;;;5.87;;
1977;SDS011;989;53.016;8.346;2022-12-31T00:53:33;9.90;;;5.20;;
1977;SDS011;989;53.016;8.346;2022-12-31T00:55:59;9.33;;;6.27;;
1977;SDS011;989;53.016;8.346;2022-12-31T00:58:26;7.70;;;5.37;;
1977;SDS011;989;53.016;8.346;2022-12-31T01:00:52;7.40;;;5.27;;
1977;SDS011;989;53.016;8.346;2022-12-31T01:03:18;8.20;;;5.53;;
1977;SDS011;989;53.016;8.346;2022-12-31T01:05:44;9.80;;;5.77;;
1977;SDS011;989;53.016;8.346;2022-12-31T01:08:10;6.80;;;5.20;;
1977;SDS011;989;53.016;8.346;2022-12-31T01:10:35;8.40;;;6.20;;
1977;SDS011;989;53.016;8.346;2022-12-31T01:13:19;9.90;;;5.40;;
1977;SDS011;989;53.016;8.346;2022-12-31T01:15:45;7.60;;;5.40;;
1977;SDS011;989;53.016;8.346;2022-12-31T01:18:11;7.80;;;5.90;;
1977;SDS011;989;53.016;8.346;2022-12-31T01:20:37;10.90;;;6.07;;
1977;SDS011;989;53.016;8.346;2022-12-31T01:23:06;9.83;;;5.83;;
1977;SDS011;989;53.016;8.346;2022-12-31T01:25:33;14.73;;;5.73;;
1977;SDS011;989;53.016;8.346;2022-12-31T01:28:04;12.20;;;5.50;;
1977;SDS011;989;53.016;8.346;2022-12-31T01:30:30;9.40;;;5.93;;
1977;SDS011;989;53.016;8.346;2022-12-31T01:32:56;8.60;;;5.47;;
1977;SDS011;989;53.016;8.346;2022-12-31T01:35:22;7.20;;;5.20;;
1977;SDS011;989;53.016;8.346;2022-12-31T01:37:48;9.97;;;5.50;;
1977;SDS011;989;53.016;8.346;2022-12-31T01:40:14;10.00;;;6.00;;
1977;SDS011;989;53.016;8.346;2022-12-31T01:42:40;11.67;;;6.20;;
1977;SDS011;989;53.016;8.346;2022-12-31T01:45:10;12.73;;;5.67;;
1977;SDS011;989;53.016;8.346;2022-12-31T01:47:41;9.50;;;5.53;;
1977;SDS011;989;53.016;8.346;2022-12-31T01:50:18;8.03;;;5.67;;
1977;SDS011;989;53.016;8.346;2022-12-31T01:52:50;10.40;;;5.90;;
1977;SDS011;989;53.016;8.346;2022-12-31T01:55:24;6.30;;;5.20;;
1977;SDS011;989;53.016;8.346;2022-12-31T01:58:04;5.80;;;5.17;;
1977;SDS011;989;53.016;8.346;2022-12-31T02:00:35;7.60;;;5.03;;
1977;SDS011;989;53.016;8.346;2022-12-31T02:03:01;13.13;;;6.50;;
1977;SDS011;989;53.016;8.346;2022-12-31T02:05:31;8.27;;;5.40;;
1977;SDS011;989;53.016;8.346;2022-12-31T02:08:03;8.50;;;6.00;;
1977;SDS011;989;53.016;8.346;2022-12-31T02:10:30;8.67;;;5.67;;
1977;SDS011;989;53.016;8.346;2022-12-31T02:12:56;9.40;;;5.80;;
1977;SDS011;989;53.016;8.346;2022-12-31T02:15:25;6.67;;;4.70;;
1977;SDS011;989;53.016;8.346;2022-12-31T02:35:23;8.20;;;5.33;;
1977;SDS011;989;53.016;8.346;2022-12-31T02:38:25;5.50;;;4.50;;
1977;SDS011;989;53.016;8.346;2022-12-31T02:40:55;7.07;;;4.20;;
1977;SDS011;989;53.016;8.346;2022-12-31T02:43:22;6.67;;;4.70;;
1977;SDS011;989;53.016;8.346;2022-12-31T02:45:58;6.13;;;4.03;;
1977;SDS011;989;53.016;8.346;2022-12-31T02:48:54;6.57;;;4.37;;
1977;SDS011;989;53.016;8.346;2022-12-31T02:51:48;9.27;;;4.47;;
1977;SDS011;989;53.016;8.346;2022-12-31T02:54:38;4.50;;;3.73;;
1977;SDS011;989;53.016;8.346;2022-12-31T02:57:47;5.23;;;3.97;;
1977;SDS011;989;53.016;8.346;2022-12-31T03:00:31;5.30;;;4.13;;
1977;SDS011;989;53.016;8.346;2022-12-31T03:03:23;6.30;;;4.27;;
1977;SDS011;989;53.016;8.346;2022-12-31T03:05:51;4.73;;;2.97;;
1977;SDS011;989;53.016;8.346;2022-12-31T03:08:24;8.83;;;2.73;;
1977;SDS011;989;53.016;8.346;2022-12-31T03:10:50;11.80;;;3.37;;
1977;SDS011;989;53.016;8.346;2022-12-31T03:13:17;4.23;;;2.87;;
1977;SDS011;989;53.016;8.346;2022-12-31T03:15:42;3.67;;;2.30;;
1977;SDS011;989;53.016;8.346;2022-12-31T03:20:46;2.80;;;2.00;;
1977;SDS011;989;53.016;8.346;2022-12-31T03:23:34;3.07;;;2.10;;
1977;SDS011;989;53.016;8.346;2022-12-31T03:26:05;2.60;;;1.80;;
1977;SDS011;989;53.016;8.346;2022-12-31T03:28:35;3.07;;;1.97;;
1977;SDS011;989;53.016;8.346;2022-12-31T03:31:02;3.37;;;1.80;;
1977;SDS011;989;53.016;8.346;2022-12-31T03:33:33;2.73;;;1.50;;
1977;SDS011;989;53.016;8.346;2022-12-31T03:36:02;2.57;;;1.63;;
1977;SDS011;989;53.016;8.346;2022-12-31T03:38:31;3.27;;;1.50;;
1977;SDS011;989;53.016;8.346;2022-12-31T03:40:56;3.27;;;1.77;;
1977;SDS011;989;53.016;8.346;2022-12-31T03:43:22;2.40;;;1.50;;
1977;SDS011;989;53.016;8.346;2022-12-31T03:45:49;2.10;;;1.37;;
1977;SDS011;989;53.016;8.346;2022-12-31T03:48:16;2.23;;;1.13;;
1977;SDS011;989;53.016;8.346;2022-12-31T03:50:43;9.90;;;2.00;;
1977;SDS011;989;53.016;8.346;2022-12-31T03:53:09;3.30;;;1.57;;
1977;SDS011;989;53.016;8.346;2022-12-31T03:55:35;1.93;;;1.47;;
1977;SDS011;989;53.016;8.346;2022-12-31T03:58:01;3.50;;;1.70;;
1977;SDS011;989;53.016;8.346;2022-12-31T04:00:26;2.60;;;1.70;;
1977;SDS011;989;53.016;8.346;2022-12-31T04:02:52;4.63;;;1.73;;
1977;SDS011;989;53.016;8.346;2022-12-31T04:05:18;3.50;;;1.57;;
1977;SDS011;989;53.016;8.346;2022-12-31T04:07:45;5.00;;;1.53;;
1977;SDS011;989;53.016;8.346;2022-12-31T04:10:12;3.20;;;2.00;;
1977;SDS011;989;53.016;8.346;2022-12-31T04:12:41;3.67;;;1.37;;
1977;SDS011;989;53.016;8.346;2022-12-31T04:15:07;5.90;;;1.63;;
1977;SDS011;989;53.016;8.346;2022-12-31T04:17:35;2.80;;;1.57;;
1977;SDS011;989;53.016;8.346;2022-12-31T04:20:01;1.77;;;1.33;;
1977;SDS011;989;53.016;8.346;2022-12-31T04:22:27;3.63;;;1.30;;
1977;SDS011;989;53.016;8.346;2022-12-31T04:24:53;2.30;;;1.20;;
1977;SDS011;989;53.016;8.346;2022-12-31T04:27:19;1.87;;;1.30;;
1977;SDS011;989;53.016;8.346;2022-12-31T04:29:44;1.50;;;1.10;;
1977;SDS011;989;53.016;8.346;2022-12-31T04:32:10;1.70;;;0.97;;
1977;SDS011;989;53.016;8.346;2022-12-31T04:34:35;2.47;;;1.00;;
1977;SDS011;989;53.016;8.346;2022-12-31T04:37:01;1.90;;;1.10;;
1977;SDS011;989;53.016;8.346;2022-12-31T04:39:27;2.30;;;1.20;;
1977;SDS011;989;53.016;8.346;2022-12-31T04:41:53;1.60;;;1.00;;
1977;SDS011;989;53.016;8.346;2022-12-31T04:44:19;2.63;;;1.00;;
1977;SDS011;989;53.016;8.346;2022-12-31T04:46:45;2.20;;;1.10;;
1977;SDS011;989;53.016;8.346;2022-12-31T04:49:11;2.17;;;1.17;;
1977;SDS011;989;53.016;8.346;2022-12-31T04:51:37;4.87;;;1.90;;
1977;SDS011;989;53.016;8.346;2022-12-31T04:54:03;2.60;;;1.60;;
1977;SDS011;989;53.016;8.346;2022-12-31T04:56:29;3.20;;;1.40;;
1977;SDS011;989;53.016;8.346;2022-12-31T04:58:56;2.43;;;1.30;;
1977;SDS011;989;53.016;8.346;2022-12-31T05:01:22;4.17;;;1.87;;
1977;SDS011;989;53.016;8.346;2022-12-31T05:03:48;4.47;;;1.53;;
1977;SDS011;989;53.016;8.346;2022-12-31T05:06:20;3.20;;;1.53;;
1977;SDS011;989;53.016;8.346;2022-12-31T05:08:47;2.60;;;1.63;;
1977;SDS011;989;53.016;8.346;2022-12-31T05:11:14;5.37;;;1.80;;
1977;SDS011;989;53.016;8.346;2022-12-31T05:13:41;3.57;;;2.00;;
1977;SDS011;989;53.016;8.346;2022-12-31T05:16:07;2.80;;;1.83;;
1977;SDS011;989;53.016;8.346;2022-12-31T05:18:33;2.63;;;1.83;;
1977;SDS011;989;53.016;8.346;2022-12-31T05:21:00;4.10;;;2.13;;
1977;SDS011;989;53.016;8.346;2022-12-31T05:23:26;3.03;;;1.60;;
1977;SDS011;989;53.016;8.346;2022-12-31T05:25:52;3.10;;;1.90;;
1977;SDS011;989;53.016;8.346;2022-12-31T05:28:18;2.90;;;1.60;;
1977;SDS011;989;53.016;8.346;2022-12-31T05:30:46;4.00;;;1.90;;
1977;SDS011;989;53.016;8.346;2022-12-31T05:33:13;4.17;;;1.80;;
1977;SDS011;989;53.016;8.346;2022-12-31T05:35:40;3.30;;;1.50;;
1977;SDS011;989;53.016;8.346;2022-12-31T05:38:05;2.97;;;1.90;;
1977;SDS011;989;53.016;8.346;2022-12-31T05:40:31;2.87;;;2.10;;
1977;SDS011;989;53.016;8.346;2022-12-31T05:42:57;4.20;;;2.40;;
1977;SDS011;989;53.016;8.346;2022-12-31T05:45:23;5.63;;;2.37;;
1977;SDS011;989;53.016;8.346;2022-12-31T05:47:48;9.03;;;2.33;;
1977;SDS011;989;53.016;8.346;2022-12-31T05:50:14;4.20;;;2.50;;
1977;SDS011;989;53.016;8.346;2022-12-31T05:52:44;5.80;;;3.07;;
1977;SDS011;989;53.016;8.346;2022-12-31T05:55:10;7.23;;;2.90;;
1977;SDS011;989;53.016;8.346;2022-12-31T05:57:37;3.67;;;2.90;;
1977;SDS011;989;53.016;8.346;2022-12-31T06:00:04;3.07;;;2.17;;
1977;SDS011;989;53.016;8.346;2022-12-31T06:02:31;2.63;;;1.83;;
1977;SDS011;989;53.016;8.346;2022-12-31T06:04:57;4.37;;;2.20;;
1977;SDS011;989;53.016;8.346;2022-12-31T06:07:23;5.93;;;2.20;;
1977;SDS011;989;53.016;8.346;2022-12-31T06:09:48;3.40;;;2.50;;
1977;SDS011;989;53.016;8.346;2022-12-31T06:12:14;4.10;;;2.17;;
1977;SDS011;989;53.016;8.346;2022-12-31T06:14:39;3.60;;;2.50;;
1977;SDS011;989;53.016;8.346;2022-12-31T06:17:05;3.40;;;2.43;;
1977;SDS011;989;53.016;8.346;2022-12-31T06:19:31;4.80;;;2.87;;
1977;SDS011;989;53.016;8.346;2022-12-31T06:21:56;5.90;;;3.70;;
1977;SDS011;989;53.016;8.346;2022-12-31T06:24:22;6.07;;;3.20;;
1977;SDS011;989;53.016;8.346;2022-12-31T06:26:48;4.00;;;3.00;;
1977;SDS011;989;53.016;8.346;2022-12-31T06:29:13;5.37;;;3.40;;
1977;SDS011;989;53.016;8.346;2022-12-31T06:31:39;5.40;;;3.10;;
1977;SDS011;989;53.016;8.346;2022-12-31T06:34:05;4.80;;;3.40;;
1977;SDS011;989;53.016;8.346;2022-12-31T06:36:30;7.53;;;3.30;;
1977;SDS011;989;53.016;8.346;2022-12-31T06:38:56;5.53;;;3.53;;
1977;SDS011;989;53.016;8.346;2022-12-31T06:41:22;5.40;;;4.03;;
1977;SDS011;989;53.016;8.346;2022-12-31T06:43:47;6.97;;;4.57;;
1977;SDS011;989;53.016;8.346;2022-12-31T06:46:14;8.33;;;4.03;;
1977;SDS011;989;53.016;8.346;2022-12-31T06:48:42;4.63;;;3.53;;
1977;SDS011;989;53.016;8.346;2022-12-31T06:51:27;9.20;;;4.40;;
1977;SDS011;989;53.016;8.346;2022-12-31T06:53:52;5.93;;;4.30;;
1977;SDS011;989;53.016;8.346;2022-12-31T06:56:20;7.77;;;4.40;;
1977;SDS011;989;53.016;8.346;2022-12-31T06:58:49;7.10;;;4.17;;
1977;SDS011;989;53.016;8.346;2022-12-31T07:21:50;12.53;;;5.17;;
1977;SDS011;989;53.016;8.346;2022-12-31T07:24:18;8.40;;;5.17;;
1977;SDS011;989;53.016;8.346;2022-12-31T07:30:10;9.97;;;6.60;;
1977;SDS011;989;53.016;8.346;2022-12-31T07:33:26;8.80;;;5.83;;
1977;SDS011;989;53.016;8.346;2022-12-31T07:36:26;9.00;;;5.30;;
1977;SDS011;989;53.016;8.346;2022-12-31T07:42:08;9.97;;;5.67;;
1977;SDS011;989;53.016;8.346;2022-12-31T07:47:31;9.80;;;5.73;;
1977;SDS011;989;53.016;8.346;2022-12-31T07:49:57;9.53;;;5.90;;
1977;SDS011;989;53.016;8.346;2022-12-31T07:52:23;14.43;;;5.57;;
1977;SDS011;989;53.016;8.346;2022-12-31T07:54:49;15.17;;;6.67;;
1977;SDS011;989;53.016;8.346;2022-12-31T07:57:15;10.80;;;6.80;;
1977;SDS011;989;53.016;8.346;2022-12-31T08:02:31;10.97;;;6.17;;
1977;SDS011;989;53.016;8.346;2022-12-31T08:06:05;10.10;;;6.30;;
1977;SDS011;989;53.016;8.346;2022-12-31T08:09:06;9.00;;;6.13;;
1977;SDS011;989;53.016;8.346;2022-12-31T08:11:59;7.93;;;6.30;;
1977;SDS011;989;53.016;8.346;2022-12-31T08:14:26;8.60;;;5.67;;
1977;SDS011;989;53.016;8.346;2022-12-31T08:16:53;10.17;;;6.73;;
1977;SDS011;989;53.016;8.346;2022-12-31T08:19:27;8.80;;;6.60;;
1977;SDS011;989;53.016;8.346;2022-12-31T08:27:54;9.40;;;6.47;;
1977;SDS011;989;53.016;8.346;2022-12-31T08:33:25;10.67;;;6.37;;
1977;SDS011;989;53.016;8.346;2022-12-31T08:39:20;10.87;;;6.87;;
1977;SDS011;989;53.016;8.346;2022-12-31T08:41:47;9.23;;;5.83;;
1977;SDS011;989;53.016;8.346;2022-12-31T08:44:24;8.83;;;5.50;;
1977;SDS011;989;53.016;8.346;2022-12-31T08:50:11;10.50;;;6.20;;
1977;SDS011;989;53.016;8.346;2022-12-31T08:52:43;10.40;;;6.30;;
1977;SDS011;989;53.016;8.346;2022-12-31T08:55:16;7.60;;;5.03;;
1977;SDS011;989;53.016;8.346;2022-12-31T09:00:41;8.13;;;5.37;;
1977;SDS011;989;53.016;8.346;2022-12-31T09:06:05;6.67;;;4.20;;
1977;SDS011;989;53.016;8.346;2022-12-31T09:08:50;6.70;;;4.67;;
1977;SDS011;989;53.016;8.346;2022-12-31T09:17:25;7.13;;;3.60;;
1977;SDS011;989;53.016;8.346;2022-12-31T09:20:32;5.30;;;3.37;;
1977;SDS011;989;53.016;8.346;2022-12-31T09:22:59;5.43;;;3.27;;
1977;SDS011;989;53.016;8.346;2022-12-31T09:25:26;9.40;;;3.80;;
1977;SDS011;989;53.016;8.346;2022-12-31T09:30:28;4.87;;;3.30;;
1977;SDS011;989;53.016;8.346;2022-12-31T09:36:07;4.67;;;3.73;;
1977;SDS011;989;53.016;8.346;2022-12-31T09:38:49;5.40;;;3.83;;
1977;SDS011;989;53.016;8.346;2022-12-31T09:51:03;3.77;;;2.90;;
1977;SDS011;989;53.016;8.346;2022-12-31T09:56:41;3.83;;;2.40;;
1977;SDS011;989;53.016;8.346;2022-12-31T10:02:38;7.00;;;2.50;;
1977;SDS011;989;53.016;8.346;2022-12-31T10:07:57;3.93;;;2.40;;
1977;SDS011;989;53.016;8.346;2022-12-31T10:10:55;3.87;;;2.70;;
1977;SDS011;989;53.016;8.346;2022-12-31T10:13:45;2.73;;;1.80;;
1977;SDS011;989;53.016;8.346;2022-12-31T10:22:29;1.80;;;1.43;;
1977;SDS011;989;53.016;8.346;2022-12-31T10:25:39;2.20;;;1.40;;
1977;SDS011;989;53.016;8.346;2022-12-31T10:28:38;3.43;;;1.23;;
1977;SDS011;989;53.016;8.346;2022-12-31T10:31:15;1.93;;;1.40;;
1977;SDS011;989;53.016;8.346;2022-12-31T10:33:53;1.50;;;0.87;;
1977;SDS011;989;53.016;8.346;2022-12-31T10:43:01;3.27;;;1.23;;
1977;SDS011;989;53.016;8.346;2022-12-31T10:58:25;1.30;;;0.73;;
1977;SDS011;989;53.016;8.346;2022-12-31T11:01:27;2.00;;;0.97;;
1977;SDS011;989;53.016;8.346;2022-12-31T11:10:07;1.30;;;0.53;;
1977;SDS011;989;53.016;8.346;2022-12-31T11:24:51;1.40;;;0.90;;
1977;SDS011;989;53.016;8.346;2022-12-31T11:42:18;2.03;;;1.27;;
1977;SDS011;989;53.016;8.346;2022-12-31T11:44:58;3.70;;;1.40;;
1977;SDS011;989;53.016;8.346;2022-12-31T11:56:11;2.63;;;1.70;;
1977;SDS011;989;53.016;8.346;2022-12-31T11:58:46;2.20;;;1.27;;
1977;SDS011;989;53.016;8.346;2022-12-31T12:01:16;1.40;;;1.07;;
1977;SDS011;989;53.016;8.346;2022-12-31T12:03:55;1.70;;;1.10;;
1977;SDS011;989;53.016;8.346;2022-12-31T12:06:27;4.63;;;1.53;;
1977;SDS011;989;53.016;8.346;2022-12-31T12:08:57;1.43;;;0.90;;
1977;SDS011;989;53.016;8.346;2022-12-31T12:11:28;4.20;;;1.13;;
1977;SDS011;989;53.016;8.346;2022-12-31T12:13:59;2.90;;;1.30;;
1977;SDS011;989;53.016;8.346;2022-12-31T12:16:25;3.93;;;1.00;;
1977;SDS011;989;53.016;8.346;2022-12-31T12:19:15;3.17;;;1.10;;
1977;SDS011;989;53.016;8.346;2022-12-31T12:21:45;1.80;;;1.20;;
1977;SDS011;989;53.016;8.346;2022-12-31T12:24:18;4.90;;;1.87;;
1977;SDS011;989;53.016;8.346;2022-12-31T12:26:53;3.30;;;2.03;;
1977;SDS011;989;53.016;8.346;2022-12-31T12:29:20;3.47;;;2.03;;
1977;SDS011;989;53.016;8.346;2022-12-31T12:34:40;2.17;;;1.67;;
1977;SDS011;989;53.016;8.346;2022-12-31T12:40:20;3.10;;;1.93;;
1977;SDS011;989;53.016;8.346;2022-12-31T12:42:48;2.30;;;1.73;;
1977;SDS011;989;53.016;8.346;2022-12-31T12:47:53;2.70;;;1.97;;
1977;SDS011;989;53.016;8.346;2022-12-31T12:50:30;2.40;;;1.77;;
1977;SDS011;989;53.016;8.346;2022-12-31T12:53:23;2.10;;;1.43;;
1977;SDS011;989;53.016;8.346;2022-12-31T12:56:26;2.20;;;1.50;;
1977;SDS011;989;53.016;8.346;2022-12-31T13:02:28;2.83;;;1.90;;
1977;SDS011;989;53.016;8.346;2022-12-31T13:08:21;5.10;;;2.60;;
1977;SDS011;989;53.016;8.346;2022-12-31T13:13:51;2.50;;;1.73;;
1977;SDS011;989;53.016;8.346;2022-12-31T13:16:56;9.90;;;2.07;;
1977;SDS011;989;53.016;8.346;2022-12-31T13:19:54;9.90;;;2.30;;
1977;SDS011;989;53.016;8.346;2022-12-31T13:25:48;4.17;;;2.10;;
1977;SDS011;989;53.016;8.346;2022-12-31T13:28:35;7.63;;;1.40;;
1977;SDS011;989;53.016;8.346;2022-12-31T13:31:08;4.60;;;1.70;;
1977;SDS011;989;53.016;8.346;2022-12-31T13:33:43;4.03;;;1.93;;
1977;SDS011;989;53.016;8.346;2022-12-31T13:36:20;1.50;;;1.00;;
1977;SDS011;989;53.016;8.346;2022-12-31T13:38:53;2.47;;;1.33;;
1977;SDS011;989;53.016;8.346;2022-12-31T13:41:37;2.63;;;1.37;;
1977;SDS011;989;53.016;8.346;2022-12-31T13:44:34;2.33;;;1.53;;
1977;SDS011;989;53.016;8.346;2022-12-31T13:47:11;8.03;;;2.07;;
1977;SDS011;989;53.016;8.346;2022-12-31T13:52:37;2.23;;;1.43;;
1977;SDS011;989;53.016;8.346;2022-12-31T14:03:53;2.53;;;1.20;;
1977;SDS011;989;53.016;8.346;2022-12-31T14:09:22;8.67;;;1.70;;
1977;SDS011;989;53.016;8.346;2022-12-31T14:14:44;3.40;;;1.80;;
1977;SDS011;989;53.016;8.346;2022-12-31T14:17:40;2.63;;;1.40;;
1977;SDS011;989;53.016;8.346;2022-12-31T14:26:30;2.70;;;1.83;;
1977;SDS011;989;53.016;8.346;2022-12-31T14:29:21;5.80;;;2.00;;
1977;SDS011;989;53.016;8.346;2022-12-31T14:38:19;6.47;;;2.93;;
1977;SDS011;989;53.016;8.346;2022-12-31T14:41:21;13.70;;;2.93;;
1977;SDS011;989;53.016;8.346;2022-12-31T14:47:38;4.97;;;2.03;;
1977;SDS011;989;53.016;8.346;2022-12-31T14:50:14;4.90;;;2.23;;
1977;SDS011;989;53.016;8.346;2022-12-31T14:53:05;7.33;;;2.40;;
1977;SDS011;989;53.016;8.346;2022-12-31T14:55:39;9.50;;;2.60;;
1977;SDS011;989;53.016;8.346;2022-12-31T14:58:18;7.00;;;2.53;;
1977;SDS011;989;53.016;8.346;2022-12-31T15:01:31;6.70;;;1.83;;
1977;SDS011;989;53.016;8.346;2022-12-31T15:03:41;3.73;;;1.77;;
1977;SDS011;989;53.016;8.346;2022-12-31T15:12:00;5.37;;;1.83;;
1977;SDS011;989;53.016;8.346;2022-12-31T15:17:28;3.90;;;1.57;;
1977;SDS011;989;53.016;8.346;2022-12-31T15:22:56;5.93;;;2.07;;
1977;SDS011;989;53.016;8.346;2022-12-31T15:25:31;7.30;;;2.50;;
1977;SDS011;989;53.016;8.346;2022-12-31T15:28:05;10.03;;;1.83;;
1977;SDS011;989;53.016;8.346;2022-12-31T15:30:52;7.10;;;1.70;;
1977;SDS011;989;53.016;8.346;2022-12-31T15:33:40;14.03;;;1.87;;
1977;SDS011;989;53.016;8.346;2022-12-31T15:36:24;3.30;;;1.60;;
1977;SDS011;989;53.016;8.346;2022-12-31T15:41:42;8.03;;;2.30;;
1977;SDS011;989;53.016;8.346;2022-12-31T15:44:17;6.60;;;2.30;;
1977;SDS011;989;53.016;8.346;2022-12-31T15:47:28;7.80;;;1.70;;
1977;SDS011;989;53.016;8.346;2022-12-31T15:50:01;15.10;;;1.50;;
1977;SDS011;989;53.016;8.346;2022-12-31T15:52:43;6.13;;;2.00;;
1977;SDS011;989;53.016;8.346;2022-12-31T15:55:22;10.00;;;2.33;;
1977;SDS011;989;53.016;8.346;2022-12-31T15:58:15;6.27;;;1.80;;
1977;SDS011;989;53.016;8.346;2022-12-31T16:00:54;5.10;;;1.90;;
1977;SDS011;989;53.016;8.346;2022-12-31T16:03:54;6.37;;;1.90;;
1977;SDS011;989;53.016;8.346;2022-12-31T16:06:30;7.70;;;2.63;;
1977;SDS011;989;53.016;8.346;2022-12-31T16:09:01;7.20;;;3.00;;
1977;SDS011;989;53.016;8.346;2022-12-31T16:11:34;7.10;;;2.90;;
1977;SDS011;989;53.016;8.346;2022-12-31T16:14:05;3.47;;;1.97;;
1977;SDS011;989;53.016;8.346;2022-12-31T16:16:40;6.77;;;2.93;;
1977;SDS011;989;53.016;8.346;2022-12-31T16:19:26;5.10;;;2.30;;
1977;SDS011;989;53.016;8.346;2022-12-31T16:22:07;5.93;;;2.47;;
1977;SDS011;989;53.016;8.346;2022-12-31T16:24:39;5.03;;;2.33;;
1977;SDS011;989;53.016;8.346;2022-12-31T16:27:14;11.13;;;2.57;;
1977;SDS011;989;53.016;8.346;2022-12-31T16:29:45;8.77;;;2.07;;
1977;SDS011;989;53.016;8.346;2022-12-31T16:32:16;6.07;;;2.20;;
1977;SDS011;989;53.016;8.346;2022-12-31T16:34:43;5.13;;;2.50;;
1977;SDS011;989;53.016;8.346;2022-12-31T16:37:13;8.00;;;2.10;;
1977;SDS011;989;53.016;8.346;2022-12-31T16:42:23;3.73;;;1.17;;
1977;SDS011;989;53.016;8.346;2022-12-31T16:44:52;10.43;;;2.13;;
1977;SDS011;989;53.016;8.346;2022-12-31T16:47:35;4.77;;;1.93;;
1977;SDS011;989;53.016;8.346;2022-12-31T16:50:05;8.80;;;1.80;;
1977;SDS011;989;53.016;8.346;2022-12-31T16:52:42;2.83;;;1.67;;
1977;SDS011;989;53.016;8.346;2022-12-31T16:55:22;4.47;;;1.50;;
1977;SDS011;989;53.016;8.346;2022-12-31T16:57:55;4.50;;;1.80;;
1977;SDS011;989;53.016;8.346;2022-12-31T17:01:20;4.23;;;1.57;;
1977;SDS011;989;53.016;8.346;2022-12-31T17:03:51;3.07;;;1.83;;
1977;SDS011;989;53.016;8.346;2022-12-31T17:06:25;6.60;;;1.90;;
1977;SDS011;989;53.016;8.346;2022-12-31T17:14:15;12.53;;;2.60;;
1977;SDS011;989;53.016;8.346;2022-12-31T17:22:23;5.93;;;2.47;;
1977;SDS011;989;53.016;8.346;2022-12-31T17:25:06;7.67;;;2.20;;
1977;SDS011;989;53.016;8.346;2022-12-31T17:27:56;11.83;;;4.47;;
1977;SDS011;989;53.016;8.346;2022-12-31T17:30:38;8.57;;;2.40;;
1977;SDS011;989;53.016;8.346;2022-12-31T17:35:33;13.40;;;3.70;;
1977;SDS011;989;53.016;8.346;2022-12-31T17:40:53;8.63;;;3.40;;
1977;SDS011;989;53.016;8.346;2022-12-31T17:43:34;14.40;;;4.00;;
1977;SDS011;989;53.016;8.346;2022-12-31T17:46:02;10.40;;;3.50;;
1977;SDS011;989;53.016;8.346;2022-12-31T17:48:38;5.93;;;2.80;;
1977;SDS011;989;53.016;8.346;2022-12-31T17:51:04;11.63;;;3.37;;
1977;SDS011;989;53.016;8.346;2022-12-31T17:53:30;9.93;;;3.17;;
1977;SDS011;989;53.016;8.346;2022-12-31T17:55:56;13.33;;;3.33;;
1977;SDS011;989;53.016;8.346;2022-12-31T17:58:27;21.87;;;3.10;;
1977;SDS011;989;53.016;8.346;2022-12-31T18:01:04;11.93;;;3.03;;
1977;SDS011;989;53.016;8.346;2022-12-31T18:03:31;6.50;;;2.93;;
1977;SDS011;989;53.016;8.346;2022-12-31T18:05:56;5.60;;;2.50;;
1977;SDS011;989;53.016;8.346;2022-12-31T18:08:22;13.23;;;2.60;;
1977;SDS011;989;53.016;8.346;2022-12-31T18:10:48;9.47;;;2.50;;
1977;SDS011;989;53.016;8.346;2022-12-31T18:13:17;6.93;;;2.70;;
1977;SDS011;989;53.016;8.346;2022-12-31T18:15:46;7.80;;;2.83;;
1977;SDS011;989;53.016;8.346;2022-12-31T18:18:15;11.83;;;2.87;;
1977;SDS011;989;53.016;8.346;2022-12-31T18:20:54;8.90;;;1.90;;
1977;SDS011;989;53.016;8.346;2022-12-31T18:23:27;10.70;;;1.97;;
1977;SDS011;989;53.016;8.346;2022-12-31T18:25:59;15.20;;;6.20;;
1977;SDS011;989;53.016;8.346;2022-12-31T18:28:25;10.70;;;3.80;;
1977;SDS011;989;53.016;8.346;2022-12-31T18:30:50;19.57;;;10.43;;
1977;SDS011;989;53.016;8.346;2022-12-31T18:33:16;10.77;;;2.93;;
1977;SDS011;989;53.016;8.346;2022-12-31T18:35:46;6.83;;;2.67;;
1977;SDS011;989;53.016;8.346;2022-12-31T18:38:14;18.17;;;2.93;;
1977;SDS011;989;53.016;8.346;2022-12-31T18:40:43;11.73;;;2.70;;
1977;SDS011;989;53.016;8.346;2022-12-31T18:43:22;11.23;;;2.10;;
1977;SDS011;989;53.016;8.346;2022-12-31T18:45:49;6.23;;;2.33;;
1977;SDS011;989;53.016;8.346;2022-12-31T18:48:16;4.53;;;2.50;;
1977;SDS011;989;53.016;8.346;2022-12-31T18:50:42;4.87;;;2.27;;
1977;SDS011;989;53.016;8.346;2022-12-31T18:53:17;8.67;;;2.13;;
1977;SDS011;989;53.016;8.346;2022-12-31T18:55:51;5.90;;;2.70;;
1977;SDS011;989;53.016;8.346;2022-12-31T18:58:20;9.70;;;2.70;;
1977;SDS011;989;53.016;8.346;2022-12-31T19:00:46;10.17;;;2.77;;
1977;SDS011;989;53.016;8.346;2022-12-31T19:03:20;15.20;;;2.80;;
1977;SDS011;989;53.016;8.346;2022-12-31T19:05:50;10.73;;;2.83;;
1977;SDS011;989;53.016;8.346;2022-12-31T19:08:16;6.70;;;2.27;;
1977;SDS011;989;53.016;8.346;2022-12-31T19:10:43;10.87;;;3.00;;
1977;SDS011;989;53.016;8.346;2022-12-31T19:13:13;5.80;;;1.73;;
1977;SDS011;989;53.016;8.346;2022-12-31T19:15:42;6.50;;;2.50;;
1977;SDS011;989;53.016;8.346;2022-12-31T19:18:10;6.73;;;2.13;;
1977;SDS011;989;53.016;8.346;2022-12-31T19:20:36;15.90;;;2.10;;
1977;SDS011;989;53.016;8.346;2022-12-31T19:23:03;4.13;;;1.97;;
1977;SDS011;989;53.016;8.346;2022-12-31T19:25:33;6.57;;;2.10;;
1977;SDS011;989;53.016;8.346;2022-12-31T19:28:03;2.63;;;1.50;;
1977;SDS011;989;53.016;8.346;2022-12-31T19:30:38;13.17;;;2.40;;
1977;SDS011;989;53.016;8.346;2022-12-31T19:33:05;8.77;;;2.10;;
1977;SDS011;989;53.016;8.346;2022-12-31T19:35:30;5.43;;;2.27;;
1977;SDS011;989;53.016;8.346;2022-12-31T19:37:56;4.37;;;1.80;;
1977;SDS011;989;53.016;8.346;2022-12-31T19:40:23;7.50;;;2.57;;
1977;SDS011;989;53.016;8.346;2022-12-31T19:42:53;19.60;;;2.27;;
1977;SDS011;989;53.016;8.346;2022-12-31T19:45:27;7.83;;;1.97;;
1977;SDS011;989;53.016;8.346;2022-12-31T19:47:54;7.47;;;2.50;;
1977;SDS011;989;53.016;8.346;2022-12-31T19:50:22;3.70;;;1.60;;
1977;SDS011;989;53.016;8.346;2022-12-31T19:52:50;7.00;;;2.27;;
1977;SDS011;989;53.016;8.346;2022-12-31T19:55:19;6.97;;;2.27;;
1977;SDS011;989;53.016;8.346;2022-12-31T19:57:46;5.97;;;2.20;;
1977;SDS011;989;53.016;8.346;2022-12-31T20:00:13;10.83;;;2.17;;
1977;SDS011;989;53.016;8.346;2022-12-31T20:02:42;8.60;;;2.60;;
1977;SDS011;989;53.016;8.346;2022-12-31T20:05:10;5.97;;;2.30;;
1977;SDS011;989;53.016;8.346;2022-12-31T20:07:38;3.90;;;1.90;;
1977;SDS011;989;53.016;8.346;2022-12-31T20:10:04;6.70;;;2.43;;
1977;SDS011;989;53.016;8.346;2022-12-31T20:12:31;6.70;;;2.73;;
1977;SDS011;989;53.016;8.346;2022-12-31T20:14:57;9.07;;;2.37;;
1977;SDS011;989;53.016;8.346;2022-12-31T20:17:22;3.17;;;1.60;;
1977;SDS011;989;53.016;8.346;2022-12-31T20:19:49;4.97;;;1.60;;
1977;SDS011;989;53.016;8.346;2022-12-31T20:22:15;4.73;;;2.43;;